EIN39C EIDW-EDDH
Flight info
| Callsign | EIN39C |
|---|---|
| Flight time | 1h 30m |
| Altitude | 37000 |
| Route | ENDEQ3J ENDEQ Q36 ALAVA Z195 MALUD UL975 WAL M16 DOLAS L603 LAMSO DCT PETIK DCT ANDIK DCT GASTU DCT OSTOR T904 RIBSO RIBSO7A |
| Aircraft | A21N/M-SDE2E3FGHIRWXY/LB1 |
Departure
| Time | 2026-05-07 17:13 |
|---|---|
| Airport | Dublin Airport (EIDW) |
Arrival
| Time | 2026-05-07 18:43 |
|---|---|
| Airport | Hamburg Helmut Schmidt Airport (EDDH) |
| Time | Latitude | Longitude | Altitude | Speed | Heading |
|---|---|---|---|---|---|
| 2026-05-07 16:20 | 53.42305 | -6.24630 | 216 ft | 0 kts | 135° |
| 2026-05-07 16:33 | 53.42305 | -6.24631 | 216 ft | 0 kts | 135° |
| 2026-05-07 16:57 | 53.42305 | -6.24632 | 216 ft | 1 kts | 135° |
| 2026-05-07 16:57 | 53.42323 | -6.24660 | 223 ft | 4 kts | 141° |
| 2026-05-07 16:58 | 53.42345 | -6.24685 | 216 ft | 4 kts | 152° |
| 2026-05-07 16:58 | 53.42370 | -6.24701 | 216 ft | 4 kts | 175° |
| 2026-05-07 16:58 | 53.42392 | -6.24695 | 216 ft | 4 kts | 206° |
| 2026-05-07 16:58 | 53.42411 | -6.24668 | 216 ft | 4 kts | 239° |
| 2026-05-07 16:59 | 53.42421 | -6.24635 | 216 ft | 4 kts | 243° |
| 2026-05-07 16:59 | 53.42426 | -6.24620 | 216 ft | 0 kts | 243° |
| 2026-05-07 17:01 | 53.42423 | -6.24629 | 216 ft | 2 kts | 243° |
| 2026-05-07 17:01 | 53.42410 | -6.24670 | 216 ft | 6 kts | 239° |
| 2026-05-07 17:01 | 53.42383 | -6.24743 | 216 ft | 9 kts | 238° |
| 2026-05-07 17:02 | 53.42380 | -6.24861 | 224 ft | 12 kts | 305° |
| 2026-05-07 17:02 | 53.42464 | -6.24938 | 222 ft | 15 kts | 338° |
| 2026-05-07 17:02 | 53.42571 | -6.25017 | 222 ft | 18 kts | 335° |
| 2026-05-07 17:02 | 53.42690 | -6.25118 | 216 ft | 21 kts | 314° |
| 2026-05-07 17:03 | 53.42815 | -6.25262 | 219 ft | 23 kts | 338° |
| 2026-05-07 17:03 | 53.42967 | -6.25369 | 223 ft | 23 kts | 337° |
| 2026-05-07 17:03 | 53.43120 | -6.25482 | 218 ft | 25 kts | 338° |
| 2026-05-07 17:03 | 53.43273 | -6.25591 | 221 ft | 12 kts | 335° |
| 2026-05-07 17:04 | 53.43284 | -6.25599 | 216 ft | 0 kts | 334° |
| 2026-05-07 17:04 | 53.43283 | -6.25599 | 216 ft | 0 kts | 334° |
| 2026-05-07 17:05 | 53.43283 | -6.25598 | 216 ft | 0 kts | 334° |
| 2026-05-07 17:05 | 53.43282 | -6.25598 | 216 ft | 0 kts | 334° |
| 2026-05-07 17:06 | 53.43282 | -6.25597 | 216 ft | 0 kts | 334° |
| 2026-05-07 17:06 | 53.43281 | -6.25597 | 216 ft | 0 kts | 334° |
| 2026-05-07 17:07 | 53.43280 | -6.25596 | 216 ft | 0 kts | 334° |
| 2026-05-07 17:08 | 53.43279 | -6.25596 | 216 ft | 0 kts | 334° |
| 2026-05-07 17:08 | 53.43279 | -6.25595 | 216 ft | 0 kts | 334° |
| 2026-05-07 17:09 | 53.43281 | -6.25597 | 216 ft | 2 kts | 334° |
| 2026-05-07 17:09 | 53.43302 | -6.25614 | 221 ft | 5 kts | 333° |
| 2026-05-07 17:09 | 53.43345 | -6.25644 | 216 ft | 9 kts | 345° |
| 2026-05-07 17:09 | 53.43405 | -6.25582 | 216 ft | 14 kts | 80° |
| 2026-05-07 17:10 | 53.43399 | -6.25390 | 216 ft | 19 kts | 95° |
| 2026-05-07 17:10 | 53.43385 | -6.25150 | 216 ft | 22 kts | 95° |
| 2026-05-07 17:10 | 53.43370 | -6.24882 | 216 ft | 24 kts | 95° |
| 2026-05-07 17:10 | 53.43357 | -6.24627 | 216 ft | 17 kts | 95° |
| 2026-05-07 17:11 | 53.43345 | -6.24419 | 216 ft | 19 kts | 95° |
| 2026-05-07 17:11 | 53.43332 | -6.24188 | 216 ft | 21 kts | 95° |
| 2026-05-07 17:11 | 53.43319 | -6.23936 | 216 ft | 23 kts | 91° |
| 2026-05-07 17:11 | 53.43445 | -6.23843 | 216 ft | 21 kts | 351° |
| 2026-05-07 17:12 | 53.43496 | -6.24064 | 216 ft | 23 kts | 275° |
| 2026-05-07 17:12 | 53.43520 | -6.24494 | 218 ft | 67 kts | 275° |
| 2026-05-07 17:12 | 53.43583 | -6.25655 | 218 ft | 130 kts | 275° |
| 2026-05-07 17:12 | 53.43682 | -6.27410 | 361 ft | 158 kts | 275° |
| 2026-05-07 17:13 | 53.43814 | -6.29257 | 803 ft | 167 kts | 275° |
| 2026-05-07 17:13 | 53.44132 | -6.31169 | 1321 ft | 174 kts | 295° |
| 2026-05-07 17:13 | 53.44923 | -6.32713 | 1910 ft | 178 kts | 323° |
| 2026-05-07 17:13 | 53.45954 | -6.33948 | 2433 ft | 187 kts | 321° |
| 2026-05-07 17:14 | 53.47122 | -6.35060 | 3035 ft | 204 kts | 341° |
| 2026-05-07 17:14 | 53.48582 | -6.35230 | 3770 ft | 218 kts | 2° |
| 2026-05-07 17:14 | 53.50134 | -6.35020 | 4564 ft | 230 kts | 9° |
| 2026-05-07 17:14 | 53.51578 | -6.33926 | 5427 ft | 235 kts | 37° |
| 2026-05-07 17:15 | 53.52584 | -6.31757 | 6180 ft | 246 kts | 71° |
| 2026-05-07 17:15 | 53.52817 | -6.28814 | 6604 ft | 267 kts | 95° |
| 2026-05-07 17:15 | 53.52690 | -6.25614 | 7314 ft | 280 kts | 96° |
| 2026-05-07 17:15 | 53.52562 | -6.22306 | 8233 ft | 286 kts | 96° |
| 2026-05-07 17:16 | 53.52461 | -6.18931 | 9174 ft | 292 kts | 95° |
| 2026-05-07 17:16 | 53.52377 | -6.15501 | 10104 ft | 297 kts | 95° |
| 2026-05-07 17:16 | 53.52300 | -6.11900 | 10612 ft | 320 kts | 94° |
| 2026-05-07 17:16 | 53.52202 | -6.08021 | 11046 ft | 341 kts | 97° |
| 2026-05-07 17:17 | 53.51768 | -6.04064 | 11803 ft | 347 kts | 106° |
| 2026-05-07 17:17 | 53.51189 | -6.00096 | 12706 ft | 352 kts | 107° |
| 2026-05-07 17:17 | 53.50597 | -5.96086 | 13582 ft | 355 kts | 107° |
| 2026-05-07 17:17 | 53.50001 | -5.92025 | 14400 ft | 360 kts | 107° |
| 2026-05-07 17:18 | 53.49403 | -5.87920 | 15192 ft | 365 kts | 107° |
| 2026-05-07 17:18 | 53.48814 | -5.83793 | 15964 ft | 370 kts | 105° |
| 2026-05-07 17:18 | 53.48271 | -5.79543 | 16720 ft | 375 kts | 105° |
| 2026-05-07 17:18 | 53.47732 | -5.75240 | 17456 ft | 379 kts | 105° |
| 2026-05-07 17:19 | 53.47186 | -5.70885 | 18171 ft | 383 kts | 104° |
| 2026-05-07 17:19 | 53.46633 | -5.66482 | 18860 ft | 388 kts | 105° |
| 2026-05-07 17:19 | 53.46068 | -5.62039 | 19538 ft | 391 kts | 105° |
| 2026-05-07 17:19 | 53.45497 | -5.57554 | 20193 ft | 395 kts | 105° |
| 2026-05-07 17:20 | 53.44922 | -5.53022 | 20829 ft | 398 kts | 105° |
| 2026-05-07 17:20 | 53.44489 | -5.48401 | 21417 ft | 406 kts | 97° |
| 2026-05-07 17:20 | 53.44388 | -5.45244 | 21656 ft | 414 kts | 95° |
| 2026-05-07 17:20 | 53.44279 | -5.40339 | 21920 ft | 427 kts | 94° |
| 2026-05-07 17:21 | 53.44169 | -5.35292 | 22132 ft | 439 kts | 95° |
| 2026-05-07 17:21 | 53.44048 | -5.30100 | 22328 ft | 451 kts | 95° |
| 2026-05-07 17:21 | 53.43916 | -5.24805 | 22709 ft | 457 kts | 95° |
| 2026-05-07 17:21 | 53.43777 | -5.19464 | 23191 ft | 460 kts | 95° |
| 2026-05-07 17:22 | 53.43631 | -5.14095 | 23683 ft | 463 kts | 95° |
| 2026-05-07 17:22 | 53.43464 | -5.08683 | 24185 ft | 466 kts | 95° |
| 2026-05-07 17:22 | 53.43291 | -5.03246 | 24689 ft | 468 kts | 95° |
| 2026-05-07 17:22 | 53.43114 | -4.97766 | 25183 ft | 470 kts | 95° |
| 2026-05-07 17:23 | 53.42936 | -4.92278 | 25652 ft | 473 kts | 95° |
| 2026-05-07 17:23 | 53.42758 | -4.86770 | 26190 ft | 472 kts | 95° |
| 2026-05-07 17:23 | 53.42580 | -4.81358 | 26758 ft | 470 kts | 96° |
| 2026-05-07 17:23 | 53.42399 | -4.75894 | 27351 ft | 467 kts | 96° |
| 2026-05-07 17:24 | 53.42217 | -4.70459 | 27929 ft | 465 kts | 96° |
| 2026-05-07 17:24 | 53.42034 | -4.65068 | 28515 ft | 462 kts | 96° |
| 2026-05-07 17:24 | 53.41840 | -4.59704 | 29083 ft | 459 kts | 96° |
| 2026-05-07 17:24 | 53.41649 | -4.54376 | 29624 ft | 457 kts | 96° |
| 2026-05-07 17:25 | 53.41458 | -4.49077 | 30130 ft | 454 kts | 96° |
| 2026-05-07 17:25 | 53.41268 | -4.43789 | 30632 ft | 453 kts | 96° |
| 2026-05-07 17:25 | 53.41074 | -4.38529 | 31141 ft | 451 kts | 96° |
| 2026-05-07 17:25 | 53.40880 | -4.33294 | 31636 ft | 448 kts | 96° |
| 2026-05-07 17:26 | 53.40685 | -4.28096 | 32113 ft | 446 kts | 96° |
| 2026-05-07 17:26 | 53.40492 | -4.22895 | 32564 ft | 445 kts | 96° |
| 2026-05-07 17:26 | 53.40299 | -4.17797 | 32978 ft | 443 kts | 97° |
| 2026-05-07 17:26 | 53.40102 | -4.12651 | 33397 ft | 442 kts | 97° |
| 2026-05-07 17:27 | 53.39911 | -4.07517 | 33786 ft | 440 kts | 97° |
| 2026-05-07 17:27 | 53.39718 | -4.02417 | 34167 ft | 438 kts | 97° |
| 2026-05-07 17:27 | 53.39570 | -3.97301 | 34468 ft | 440 kts | 92° |
| 2026-05-07 17:27 | 53.39748 | -3.92166 | 34756 ft | 442 kts | 88° |
| 2026-05-07 17:28 | 53.40011 | -3.87009 | 35005 ft | 444 kts | 88° |
| 2026-05-07 17:28 | 53.40280 | -3.81858 | 35244 ft | 445 kts | 88° |
| 2026-05-07 17:28 | 53.40542 | -3.76690 | 35493 ft | 445 kts | 88° |
| 2026-05-07 17:28 | 53.40795 | -3.71507 | 35726 ft | 446 kts | 88° |
| 2026-05-07 17:29 | 53.41046 | -3.66307 | 35948 ft | 447 kts | 88° |
| 2026-05-07 17:29 | 53.41248 | -3.61101 | 36154 ft | 447 kts | 92° |
| 2026-05-07 17:29 | 53.41117 | -3.55901 | 36354 ft | 446 kts | 96° |
| 2026-05-07 17:29 | 53.40887 | -3.50713 | 36542 ft | 447 kts | 97° |
| 2026-05-07 17:30 | 53.40650 | -3.45589 | 36790 ft | 446 kts | 97° |
| 2026-05-07 17:30 | 53.40411 | -3.40418 | 36998 ft | 444 kts | 97° |
| 2026-05-07 17:30 | 53.39942 | -3.30124 | 37017 ft | 442 kts | 97° |
| 2026-05-07 17:31 | 53.39466 | -3.19847 | 37002 ft | 442 kts | 97° |
| 2026-05-07 17:31 | 53.39025 | -3.09583 | 37002 ft | 442 kts | 96° |
| 2026-05-07 17:32 | 53.38652 | -2.99284 | 37008 ft | 442 kts | 96° |
| 2026-05-07 17:32 | 53.38271 | -2.89020 | 37019 ft | 442 kts | 96° |
| 2026-05-07 17:33 | 53.37866 | -2.78812 | 37019 ft | 442 kts | 96° |
| 2026-05-07 17:33 | 53.37453 | -2.68537 | 37020 ft | 441 kts | 96° |
| 2026-05-07 17:34 | 53.37038 | -2.58269 | 37020 ft | 441 kts | 96° |
| 2026-05-07 17:34 | 53.36613 | -2.48031 | 37021 ft | 441 kts | 96° |
| 2026-05-07 17:35 | 53.36178 | -2.37780 | 37021 ft | 441 kts | 96° |
| 2026-05-07 17:35 | 53.35736 | -2.27617 | 37020 ft | 440 kts | 97° |
| 2026-05-07 17:36 | 53.34813 | -2.17496 | 37021 ft | 439 kts | 102° |
| 2026-05-07 17:36 | 53.33771 | -2.07431 | 37020 ft | 439 kts | 102° |
| 2026-05-07 17:37 | 53.32730 | -1.97369 | 37020 ft | 439 kts | 102° |
| 2026-05-07 17:37 | 53.31683 | -1.87327 | 37019 ft | 438 kts | 102° |
| 2026-05-07 17:38 | 53.30626 | -1.77283 | 37022 ft | 438 kts | 102° |
| 2026-05-07 17:38 | 53.29560 | -1.67237 | 37021 ft | 439 kts | 102° |
| 2026-05-07 17:39 | 53.28483 | -1.57188 | 37021 ft | 439 kts | 102° |
| 2026-05-07 17:39 | 53.27402 | -1.47153 | 37020 ft | 439 kts | 102° |
| 2026-05-07 17:40 | 53.26313 | -1.37160 | 37019 ft | 439 kts | 102° |
| 2026-05-07 17:40 | 53.25213 | -1.27122 | 37021 ft | 439 kts | 102° |
| 2026-05-07 17:41 | 53.24103 | -1.17078 | 37033 ft | 440 kts | 102° |
| 2026-05-07 17:41 | 53.22977 | -1.07038 | 37033 ft | 440 kts | 102° |
| 2026-05-07 17:42 | 53.21858 | -0.96994 | 37038 ft | 440 kts | 102° |
| 2026-05-07 17:42 | 53.20715 | -0.86936 | 37040 ft | 440 kts | 102° |
| 2026-05-07 17:43 | 53.19564 | -0.76896 | 37054 ft | 440 kts | 103° |
| 2026-05-07 17:43 | 53.18410 | -0.66860 | 37048 ft | 441 kts | 103° |
| 2026-05-07 17:44 | 53.17247 | -0.56831 | 37050 ft | 441 kts | 103° |
| 2026-05-07 17:44 | 53.16073 | -0.46789 | 37051 ft | 441 kts | 103° |
| 2026-05-07 17:45 | 53.14893 | -0.36824 | 37049 ft | 441 kts | 103° |
| 2026-05-07 17:45 | 53.13699 | -0.26801 | 37051 ft | 441 kts | 103° |
| 2026-05-07 17:46 | 53.12497 | -0.16754 | 37047 ft | 442 kts | 103° |
| 2026-05-07 17:46 | 53.11292 | -0.06734 | 37049 ft | 441 kts | 103° |
| 2026-05-07 17:47 | 53.10079 | 0.03277 | 37049 ft | 441 kts | 103° |
| 2026-05-07 17:47 | 53.08860 | 0.13269 | 37048 ft | 441 kts | 103° |
| 2026-05-07 17:48 | 53.07637 | 0.23197 | 37056 ft | 441 kts | 103° |
| 2026-05-07 17:48 | 53.06396 | 0.33183 | 37061 ft | 441 kts | 103° |
| 2026-05-07 17:49 | 53.05145 | 0.43171 | 37060 ft | 441 kts | 103° |
| 2026-05-07 17:49 | 53.03887 | 0.53154 | 37060 ft | 441 kts | 103° |
| 2026-05-07 17:50 | 53.02623 | 0.63132 | 37064 ft | 441 kts | 103° |
| 2026-05-07 17:50 | 53.01347 | 0.73095 | 37075 ft | 441 kts | 103° |
| 2026-05-07 17:51 | 53.00074 | 0.82994 | 37078 ft | 441 kts | 103° |
| 2026-05-07 17:51 | 52.98777 | 0.92961 | 37080 ft | 441 kts | 103° |
| 2026-05-07 17:52 | 52.97523 | 1.02946 | 37080 ft | 442 kts | 102° |
| 2026-05-07 17:52 | 52.96374 | 1.12950 | 37080 ft | 442 kts | 102° |
| 2026-05-07 17:53 | 52.95205 | 1.22957 | 37079 ft | 442 kts | 102° |
| 2026-05-07 17:53 | 52.94026 | 1.32948 | 37080 ft | 442 kts | 102° |
| 2026-05-07 17:54 | 52.92853 | 1.42965 | 37080 ft | 442 kts | 102° |
| 2026-05-07 17:54 | 52.91672 | 1.52956 | 37080 ft | 442 kts | 102° |
| 2026-05-07 17:55 | 52.90490 | 1.62893 | 37081 ft | 442 kts | 102° |
| 2026-05-07 17:55 | 52.89289 | 1.72897 | 37083 ft | 442 kts | 102° |
| 2026-05-07 17:56 | 52.88076 | 1.82896 | 37087 ft | 442 kts | 102° |
| 2026-05-07 17:56 | 52.86850 | 1.92881 | 37084 ft | 443 kts | 103° |
| 2026-05-07 17:57 | 52.85826 | 2.01184 | 37096 ft | 443 kts | 103° |
| 2026-05-07 17:57 | 52.84403 | 2.12786 | 37097 ft | 443 kts | 102° |
| 2026-05-07 17:58 | 52.83156 | 2.22794 | 37096 ft | 443 kts | 103° |
| 2026-05-07 17:58 | 52.81904 | 2.32770 | 37104 ft | 443 kts | 103° |
| 2026-05-07 17:59 | 52.80645 | 2.42699 | 37111 ft | 443 kts | 103° |
| 2026-05-07 17:59 | 52.79372 | 2.52676 | 37110 ft | 443 kts | 103° |
| 2026-05-07 18:00 | 52.78088 | 2.62648 | 37119 ft | 444 kts | 103° |
| 2026-05-07 18:00 | 52.76797 | 2.72616 | 37119 ft | 444 kts | 103° |
| 2026-05-07 18:01 | 52.75502 | 2.82577 | 37119 ft | 444 kts | 103° |
| 2026-05-07 18:01 | 52.74201 | 2.92469 | 37118 ft | 444 kts | 103° |
| 2026-05-07 18:02 | 52.72531 | 3.07499 | 37121 ft | 444 kts | 99° |
| 2026-05-07 18:03 | 52.71608 | 3.17610 | 37121 ft | 445 kts | 99° |
| 2026-05-07 18:03 | 52.70672 | 3.27698 | 37121 ft | 445 kts | 99° |
| 2026-05-07 18:04 | 52.69723 | 3.37787 | 37121 ft | 445 kts | 99° |
| 2026-05-07 18:04 | 52.68764 | 3.47886 | 37119 ft | 445 kts | 100° |
| 2026-05-07 18:05 | 52.67802 | 3.57906 | 37119 ft | 446 kts | 100° |
| 2026-05-07 18:05 | 52.66933 | 3.68035 | 37111 ft | 447 kts | 91° |
| 2026-05-07 18:05 | 52.67306 | 3.73114 | 37107 ft | 449 kts | 75° |
| 2026-05-07 18:06 | 52.68355 | 3.77956 | 37116 ft | 449 kts | 69° |
| 2026-05-07 18:06 | 52.70686 | 3.87526 | 37111 ft | 450 kts | 69° |
| 2026-05-07 18:07 | 52.72970 | 3.97289 | 37111 ft | 460 kts | 70° |
| 2026-05-07 18:07 | 52.74850 | 4.05512 | 37116 ft | 461 kts | 70° |
| 2026-05-07 18:08 | 52.77092 | 4.15427 | 37112 ft | 461 kts | 70° |
| 2026-05-07 18:08 | 52.79346 | 4.25351 | 37107 ft | 461 kts | 70° |
| 2026-05-07 18:09 | 52.81578 | 4.35209 | 37110 ft | 460 kts | 70° |
| 2026-05-07 18:09 | 52.83809 | 4.45119 | 37109 ft | 459 kts | 70° |
| 2026-05-07 18:10 | 52.86042 | 4.55055 | 37107 ft | 461 kts | 70° |
| 2026-05-07 18:10 | 52.88264 | 4.65016 | 37112 ft | 461 kts | 70° |
| 2026-05-07 18:11 | 52.90479 | 4.74986 | 37110 ft | 461 kts | 71° |
| 2026-05-07 18:11 | 52.92678 | 4.84960 | 37111 ft | 460 kts | 71° |
| 2026-05-07 18:12 | 52.94879 | 4.94923 | 37111 ft | 460 kts | 70° |
| 2026-05-07 18:12 | 52.97064 | 5.04822 | 37109 ft | 460 kts | 71° |
| 2026-05-07 18:13 | 52.99239 | 5.14812 | 37108 ft | 459 kts | 71° |
| 2026-05-07 18:13 | 53.01405 | 5.24788 | 37115 ft | 459 kts | 71° |
| 2026-05-07 18:14 | 53.03562 | 5.34790 | 37106 ft | 459 kts | 71° |
| 2026-05-07 18:14 | 53.05705 | 5.44777 | 37110 ft | 459 kts | 71° |
| 2026-05-07 18:15 | 53.07841 | 5.54781 | 37111 ft | 458 kts | 71° |
| 2026-05-07 18:15 | 53.09959 | 5.64770 | 37114 ft | 458 kts | 71° |
| 2026-05-07 18:16 | 53.12051 | 5.74698 | 37111 ft | 457 kts | 71° |
| 2026-05-07 18:16 | 53.14154 | 5.84682 | 37113 ft | 457 kts | 71° |
| 2026-05-07 18:17 | 53.16241 | 5.94656 | 37109 ft | 456 kts | 71° |
| 2026-05-07 18:17 | 53.18332 | 6.04657 | 37111 ft | 456 kts | 71° |
| 2026-05-07 18:18 | 53.20406 | 6.14644 | 37112 ft | 455 kts | 71° |
| 2026-05-07 18:18 | 53.22476 | 6.24642 | 37112 ft | 455 kts | 71° |
| 2026-05-07 18:19 | 53.24516 | 6.34577 | 37110 ft | 455 kts | 72° |
| 2026-05-07 18:19 | 53.26559 | 6.44583 | 37108 ft | 455 kts | 72° |
| 2026-05-07 18:20 | 53.28596 | 6.54617 | 37114 ft | 455 kts | 72° |
| 2026-05-07 18:20 | 53.30622 | 6.64651 | 37109 ft | 455 kts | 72° |
| 2026-05-07 18:21 | 53.32644 | 6.74689 | 37113 ft | 456 kts | 72° |
| 2026-05-07 18:21 | 53.34649 | 6.84754 | 37114 ft | 456 kts | 72° |
| 2026-05-07 18:22 | 53.36654 | 6.94824 | 37107 ft | 456 kts | 72° |
| 2026-05-07 18:22 | 53.38641 | 7.04829 | 37108 ft | 456 kts | 72° |
| 2026-05-07 18:23 | 53.40632 | 7.14925 | 37111 ft | 455 kts | 72° |
| 2026-05-07 18:23 | 53.42596 | 7.24939 | 36854 ft | 453 kts | 72° |
| 2026-05-07 18:23 | 53.43575 | 7.29962 | 36631 ft | 452 kts | 72° |
| 2026-05-07 18:24 | 53.44549 | 7.34967 | 36387 ft | 450 kts | 72° |
| 2026-05-07 18:24 | 53.45521 | 7.39968 | 36126 ft | 451 kts | 72° |
| 2026-05-07 18:24 | 53.46493 | 7.44982 | 35892 ft | 453 kts | 72° |
| 2026-05-07 18:24 | 53.47469 | 7.50029 | 35646 ft | 454 kts | 72° |
| 2026-05-07 18:25 | 53.48435 | 7.55057 | 35395 ft | 453 kts | 72° |
| 2026-05-07 18:25 | 53.49401 | 7.60080 | 35141 ft | 451 kts | 72° |
| 2026-05-07 18:25 | 53.50360 | 7.65081 | 34894 ft | 449 kts | 72° |
| 2026-05-07 18:25 | 53.51314 | 7.70061 | 34643 ft | 447 kts | 72° |
| 2026-05-07 18:26 | 53.52261 | 7.75024 | 34142 ft | 444 kts | 72° |
| 2026-05-07 18:26 | 53.53198 | 7.79952 | 33479 ft | 442 kts | 72° |
| 2026-05-07 18:26 | 53.54129 | 7.84864 | 32780 ft | 441 kts | 72° |
| 2026-05-07 18:26 | 53.55060 | 7.89783 | 32044 ft | 442 kts | 72° |
| 2026-05-07 18:27 | 53.55993 | 7.94733 | 31301 ft | 445 kts | 72° |
| 2026-05-07 18:27 | 53.56929 | 7.99720 | 30559 ft | 448 kts | 73° |
| 2026-05-07 18:27 | 53.57855 | 8.04668 | 29766 ft | 451 kts | 73° |
| 2026-05-07 18:27 | 53.58800 | 8.09722 | 28915 ft | 455 kts | 72° |
| 2026-05-07 18:28 | 53.59753 | 8.14817 | 28053 ft | 459 kts | 72° |
| 2026-05-07 18:28 | 53.60711 | 8.19965 | 27162 ft | 462 kts | 73° |
| 2026-05-07 18:28 | 53.61678 | 8.25176 | 26262 ft | 467 kts | 72° |
| 2026-05-07 18:28 | 53.62636 | 8.30368 | 25697 ft | 455 kts | 73° |
| 2026-05-07 18:29 | 53.63561 | 8.35395 | 25026 ft | 447 kts | 72° |
| 2026-05-07 18:29 | 53.64485 | 8.40407 | 23906 ft | 453 kts | 72° |
| 2026-05-07 18:29 | 53.65423 | 8.45507 | 23071 ft | 454 kts | 72° |
| 2026-05-07 18:29 | 53.66349 | 8.50581 | 22465 ft | 451 kts | 72° |
| 2026-05-07 18:30 | 53.67268 | 8.55615 | 21851 ft | 448 kts | 72° |
| 2026-05-07 18:30 | 53.68168 | 8.60550 | 21206 ft | 445 kts | 72° |
| 2026-05-07 18:30 | 53.69083 | 8.65586 | 20531 ft | 442 kts | 72° |
| 2026-05-07 18:30 | 53.69977 | 8.70523 | 19889 ft | 438 kts | 73° |
| 2026-05-07 18:31 | 53.70861 | 8.75411 | 19156 ft | 430 kts | 73° |
| 2026-05-07 18:31 | 53.71713 | 8.80139 | 18013 ft | 424 kts | 73° |
| 2026-05-07 18:31 | 53.72577 | 8.84945 | 16821 ft | 419 kts | 73° |
| 2026-05-07 18:31 | 53.73414 | 8.89625 | 15695 ft | 414 kts | 73° |
| 2026-05-07 18:32 | 53.74241 | 8.94243 | 14609 ft | 407 kts | 73° |
| 2026-05-07 18:32 | 53.74995 | 8.98813 | 13544 ft | 401 kts | 79° |
| 2026-05-07 18:32 | 53.75140 | 9.03460 | 12540 ft | 394 kts | 95° |
| 2026-05-07 18:32 | 53.74517 | 9.07859 | 11794 ft | 386 kts | 112° |
| 2026-05-07 18:33 | 53.73189 | 9.11640 | 11397 ft | 364 kts | 128° |
| 2026-05-07 18:33 | 53.71585 | 9.14760 | 11214 ft | 341 kts | 133° |
| 2026-05-07 18:33 | 53.70011 | 9.17576 | 11128 ft | 318 kts | 133° |
| 2026-05-07 18:33 | 53.68535 | 9.20169 | 11091 ft | 296 kts | 134° |
| 2026-05-07 18:34 | 53.67135 | 9.22616 | 10788 ft | 287 kts | 134° |
| 2026-05-07 18:34 | 53.65746 | 9.25033 | 10269 ft | 286 kts | 134° |
| 2026-05-07 18:34 | 53.64361 | 9.27430 | 9771 ft | 285 kts | 134° |
| 2026-05-07 18:34 | 53.62980 | 9.29804 | 9299 ft | 283 kts | 134° |
| 2026-05-07 18:35 | 53.61602 | 9.32152 | 8827 ft | 280 kts | 134° |
| 2026-05-07 18:35 | 53.60234 | 9.34465 | 8381 ft | 278 kts | 134° |
| 2026-05-07 18:35 | 53.58875 | 9.36756 | 7930 ft | 275 kts | 134° |
| 2026-05-07 18:35 | 53.57529 | 9.39019 | 7466 ft | 272 kts | 134° |
| 2026-05-07 18:36 | 53.56383 | 9.41510 | 6992 ft | 267 kts | 118° |
| 2026-05-07 18:36 | 53.55552 | 9.44281 | 6461 ft | 263 kts | 114° |
| 2026-05-07 18:36 | 53.54780 | 9.47062 | 5939 ft | 260 kts | 114° |
| 2026-05-07 18:36 | 53.54026 | 9.49803 | 5486 ft | 255 kts | 114° |
| 2026-05-07 18:37 | 53.53293 | 9.52469 | 5159 ft | 248 kts | 114° |
| 2026-05-07 18:37 | 53.52583 | 9.55044 | 4702 ft | 244 kts | 114° |
| 2026-05-07 18:37 | 53.51869 | 9.57618 | 4204 ft | 243 kts | 114° |
| 2026-05-07 18:37 | 53.51162 | 9.60161 | 3882 ft | 236 kts | 114° |
| 2026-05-07 18:38 | 53.50476 | 9.62624 | 3554 ft | 230 kts | 114° |
| 2026-05-07 18:38 | 53.49922 | 9.65116 | 3181 ft | 227 kts | 99° |
| 2026-05-07 18:38 | 53.49752 | 9.67710 | 3012 ft | 219 kts | 91° |
| 2026-05-07 18:38 | 53.49872 | 9.70233 | 2983 ft | 216 kts | 83° |
| 2026-05-07 18:39 | 53.50267 | 9.72660 | 2980 ft | 217 kts | 65° |
| 2026-05-07 18:39 | 53.51064 | 9.74812 | 2986 ft | 213 kts | 54° |
| 2026-05-07 18:39 | 53.52016 | 9.76599 | 2960 ft | 197 kts | 52° |
| 2026-05-07 18:39 | 53.52868 | 9.78301 | 2827 ft | 182 kts | 52° |
| 2026-05-07 18:40 | 53.53652 | 9.79879 | 2633 ft | 174 kts | 52° |
| 2026-05-07 18:40 | 53.54427 | 9.81438 | 2389 ft | 169 kts | 51° |
| 2026-05-07 18:40 | 53.55166 | 9.82930 | 2149 ft | 164 kts | 51° |
| 2026-05-07 18:40 | 53.55887 | 9.84385 | 1930 ft | 164 kts | 51° |
| 2026-05-07 18:41 | 53.56593 | 9.85808 | 1737 ft | 152 kts | 51° |
| 2026-05-07 18:41 | 53.57249 | 9.87131 | 1520 ft | 144 kts | 50° |
| 2026-05-07 18:41 | 53.57890 | 9.88426 | 1317 ft | 144 kts | 50° |
| 2026-05-07 18:41 | 53.58524 | 9.89704 | 1138 ft | 136 kts | 50° |
| 2026-05-07 18:42 | 53.59117 | 9.90904 | 951 ft | 132 kts | 51° |
| 2026-05-07 18:42 | 53.59706 | 9.92094 | 771 ft | 132 kts | 51° |
| 2026-05-07 18:42 | 53.60294 | 9.93283 | 596 ft | 133 kts | 51° |
| 2026-05-07 18:42 | 53.60884 | 9.94475 | 421 ft | 133 kts | 51° |
| 2026-05-07 18:43 | 53.61477 | 9.95674 | 243 ft | 133 kts | 51° |
| 2026-05-07 18:43 | 53.62070 | 9.96873 | 58 ft | 134 kts | 50° |
| 2026-05-07 18:43 | 53.62632 | 9.98012 | 46 ft | 109 kts | 51° |
| 2026-05-07 18:43 | 53.62916 | 9.98592 | 50 ft | 46 kts | 48° |
| 2026-05-07 18:44 | 53.63060 | 9.98882 | 51 ft | 27 kts | 54° |
| 2026-05-07 18:44 | 53.63089 | 9.99023 | 52 ft | 5 kts | 78° |
| 2026-05-07 18:44 | 53.63090 | 9.99101 | 52 ft | 8 kts | 90° |
| 2026-05-07 18:44 | 53.63088 | 9.99193 | 52 ft | 0 kts | 94° |
| 2026-05-07 18:45 | 53.63086 | 9.99219 | 49 ft | 4 kts | 96° |
| 2026-05-07 18:45 | 53.63081 | 9.99287 | 52 ft | 7 kts | 90° |
| 2026-05-07 18:45 | 53.63095 | 9.99385 | 52 ft | 10 kts | 69° |
| 2026-05-07 18:45 | 53.63132 | 9.99490 | 50 ft | 11 kts | 54° |
| 2026-05-07 18:46 | 53.63178 | 9.99592 | 50 ft | 9 kts | 39° |
| 2026-05-07 18:46 | 53.63191 | 9.99613 | 53 ft | 1 kts | 42° |
| 2026-05-07 18:46 | 53.63206 | 9.99638 | 51 ft | 5 kts | 47° |
| 2026-05-07 18:46 | 53.63227 | 9.99707 | 54 ft | 8 kts | 85° |
| 2026-05-07 18:47 | 53.63187 | 9.99792 | 54 ft | 11 kts | 144° |
| 2026-05-07 18:47 | 53.63175 | 9.99802 | 54 ft | 0 kts | 157° |
| 2026-05-07 18:47 | 53.63172 | 9.99804 | 54 ft | 2 kts | 156° |
| 2026-05-07 18:48 | 53.63144 | 9.99828 | 54 ft | 9 kts | 151° |
| 2026-05-07 18:48 | 53.63057 | 9.99905 | 54 ft | 16 kts | 153° |
| 2026-05-07 18:48 | 53.62949 | 9.99998 | 51 ft | 19 kts | 153° |
| 2026-05-07 18:48 | 53.62938 | 10.00124 | 53 ft | 10 kts | 24° |
| 2026-05-07 18:49 | 53.63002 | 10.00193 | 51 ft | 7 kts | 35° |
| 2026-05-07 18:49 | 53.63011 | 10.00279 | 51 ft | 10 kts | 111° |
| 2026-05-07 18:49 | 53.62993 | 10.00356 | 54 ft | 0 kts | 107° |
| 2026-05-07 18:49 | 53.62992 | 10.00359 | 54 ft | 0 kts | 109° |